sensor_id;sensor_type;location;lat;lon;timestamp;temperature;humidity
15765;DHT22;7983;50.744;7.086;2022-07-17T00:00:56;18.30;64.40
15765;DHT22;7983;50.744;7.086;2022-07-17T00:03:24;18.20;64.10
15765;DHT22;7983;50.744;7.086;2022-07-17T00:05:49;18.20;64.30
15765;DHT22;7983;50.744;7.086;2022-07-17T00:08:18;18.10;64.30
15765;DHT22;7983;50.744;7.086;2022-07-17T00:10:44;18.10;64.70
15765;DHT22;7983;50.744;7.086;2022-07-17T00:13:10;18.10;64.80
15765;DHT22;7983;50.744;7.086;2022-07-17T00:15:39;18.00;64.90
15765;DHT22;7983;50.744;7.086;2022-07-17T00:18:07;18.00;65.10
15765;DHT22;7983;50.744;7.086;2022-07-17T00:20:34;17.90;65.10
15765;DHT22;7983;50.744;7.086;2022-07-17T00:23:02;17.90;65.30
15765;DHT22;7983;50.744;7.086;2022-07-17T00:25:30;17.90;65.80
15765;DHT22;7983;50.744;7.086;2022-07-17T00:27:57;17.80;65.90
15765;DHT22;7983;50.744;7.086;2022-07-17T00:30:23;17.80;65.60
15765;DHT22;7983;50.744;7.086;2022-07-17T00:32:49;17.70;65.60
15765;DHT22;7983;50.744;7.086;2022-07-17T00:35:15;17.60;65.80
15765;DHT22;7983;50.744;7.086;2022-07-17T00:37:42;17.60;65.80
15765;DHT22;7983;50.744;7.086;2022-07-17T00:40:10;17.50;66.20
15765;DHT22;7983;50.744;7.086;2022-07-17T00:42:39;17.40;66.10
15765;DHT22;7983;50.744;7.086;2022-07-17T00:45:11;17.40;66.40
15765;DHT22;7983;50.744;7.086;2022-07-17T00:50:27;17.30;67.60
15765;DHT22;7983;50.744;7.086;2022-07-17T00:52:55;17.20;67.20
15765;DHT22;7983;50.744;7.086;2022-07-17T00:55:22;17.10;67.00
15765;DHT22;7983;50.744;7.086;2022-07-17T00:57:52;17.00;67.00
15765;DHT22;7983;50.744;7.086;2022-07-17T01:00:20;17.00;67.50
15765;DHT22;7983;50.744;7.086;2022-07-17T01:02:48;16.90;67.10
15765;DHT22;7983;50.744;7.086;2022-07-17T01:05:16;16.90;67.50
15765;DHT22;7983;50.744;7.086;2022-07-17T01:07:45;16.90;67.60
15765;DHT22;7983;50.744;7.086;2022-07-17T01:10:20;16.80;67.60
15765;DHT22;7983;50.744;7.086;2022-07-17T01:12:46;16.80;68.40
15765;DHT22;7983;50.744;7.086;2022-07-17T01:15:16;16.70;68.00
15765;DHT22;7983;50.744;7.086;2022-07-17T01:17:45;16.70;68.60
15765;DHT22;7983;50.744;7.086;2022-07-17T01:20:11;16.70;68.80
15765;DHT22;7983;50.744;7.086;2022-07-17T01:25:10;16.70;69.50
15765;DHT22;7983;50.744;7.086;2022-07-17T01:27:36;16.70;69.20
15765;DHT22;7983;50.744;7.086;2022-07-17T01:30:05;16.60;69.00
15765;DHT22;7983;50.744;7.086;2022-07-17T01:32:34;16.60;69.50
15765;DHT22;7983;50.744;7.086;2022-07-17T01:35:03;16.60;69.70
15765;DHT22;7983;50.744;7.086;2022-07-17T01:37:29;16.50;69.80
15765;DHT22;7983;50.744;7.086;2022-07-17T01:39:58;16.60;69.10
15765;DHT22;7983;50.744;7.086;2022-07-17T01:42:25;16.50;69.20
15765;DHT22;7983;50.744;7.086;2022-07-17T01:44:51;16.50;69.40
15765;DHT22;7983;50.744;7.086;2022-07-17T01:47:18;16.50;69.70
15765;DHT22;7983;50.744;7.086;2022-07-17T01:49:52;16.40;69.70
15765;DHT22;7983;50.744;7.086;2022-07-17T01:52:19;16.50;70.30
15765;DHT22;7983;50.744;7.086;2022-07-17T01:54:45;16.40;69.80
15765;DHT22;7983;50.744;7.086;2022-07-17T01:57:11;16.40;69.90
15765;DHT22;7983;50.744;7.086;2022-07-17T01:59:39;16.40;70.20
15765;DHT22;7983;50.744;7.086;2022-07-17T02:02:06;16.40;70.30
15765;DHT22;7983;50.744;7.086;2022-07-17T02:04:33;16.40;70.50
15765;DHT22;7983;50.744;7.086;2022-07-17T02:07:01;16.40;70.50
15765;DHT22;7983;50.744;7.086;2022-07-17T02:09:27;16.30;70.50
15765;DHT22;7983;50.744;7.086;2022-07-17T02:11:52;16.40;70.80
15765;DHT22;7983;50.744;7.086;2022-07-17T02:14:21;16.30;70.90
15765;DHT22;7983;50.744;7.086;2022-07-17T02:16:46;16.40;71.10
15765;DHT22;7983;50.744;7.086;2022-07-17T02:19:12;16.30;71.00
15765;DHT22;7983;50.744;7.086;2022-07-17T02:21:38;16.30;71.30
15765;DHT22;7983;50.744;7.086;2022-07-17T02:24:04;16.30;71.40
15765;DHT22;7983;50.744;7.086;2022-07-17T02:26:33;16.30;71.70
15765;DHT22;7983;50.744;7.086;2022-07-17T02:28:58;16.30;72.20
15765;DHT22;7983;50.744;7.086;2022-07-17T02:31:24;16.20;71.90
15765;DHT22;7983;50.744;7.086;2022-07-17T02:33:50;16.20;72.30
15765;DHT22;7983;50.744;7.086;2022-07-17T02:36:20;16.10;72.10
15765;DHT22;7983;50.744;7.086;2022-07-17T02:38:46;16.10;72.30
15765;DHT22;7983;50.744;7.086;2022-07-17T02:41:16;16.10;72.50
15765;DHT22;7983;50.744;7.086;2022-07-17T02:43:44;16.10;72.80
15765;DHT22;7983;50.744;7.086;2022-07-17T02:46:10;16.00;72.80
15765;DHT22;7983;50.744;7.086;2022-07-17T02:48:36;16.00;72.90
15765;DHT22;7983;50.744;7.086;2022-07-17T02:51:02;16.00;73.10
15765;DHT22;7983;50.744;7.086;2022-07-17T02:53:30;15.90;73.10
15765;DHT22;7983;50.744;7.086;2022-07-17T02:55:55;15.90;73.80
15765;DHT22;7983;50.744;7.086;2022-07-17T02:58:23;15.90;73.50
15765;DHT22;7983;50.744;7.086;2022-07-17T03:00:49;15.80;73.50
15765;DHT22;7983;50.744;7.086;2022-07-17T03:03:15;15.80;73.90
15765;DHT22;7983;50.744;7.086;2022-07-17T03:05:40;15.80;74.00
15765;DHT22;7983;50.744;7.086;2022-07-17T03:08:06;15.70;73.90
15765;DHT22;7983;50.744;7.086;2022-07-17T03:10:32;15.60;74.30
15765;DHT22;7983;50.744;7.086;2022-07-17T03:13:02;15.60;74.50
15765;DHT22;7983;50.744;7.086;2022-07-17T03:15:30;15.60;75.00
15765;DHT22;7983;50.744;7.086;2022-07-17T03:18:00;15.50;74.70
15765;DHT22;7983;50.744;7.086;2022-07-17T03:20:26;15.50;75.10
15765;DHT22;7983;50.744;7.086;2022-07-17T03:22:51;15.40;75.10
15765;DHT22;7983;50.744;7.086;2022-07-17T03:25:17;15.40;75.20
15765;DHT22;7983;50.744;7.086;2022-07-17T03:27:43;15.40;75.80
15765;DHT22;7983;50.744;7.086;2022-07-17T03:30:09;15.40;75.80
15765;DHT22;7983;50.744;7.086;2022-07-17T03:32:41;15.40;76.10
15765;DHT22;7983;50.744;7.086;2022-07-17T03:35:09;15.30;76.50
15765;DHT22;7983;50.744;7.086;2022-07-17T03:37:37;15.30;76.70
15765;DHT22;7983;50.744;7.086;2022-07-17T03:40:07;15.20;76.30
15765;DHT22;7983;50.744;7.086;2022-07-17T03:42:36;15.20;77.10
15765;DHT22;7983;50.744;7.086;2022-07-17T03:45:04;15.20;76.90
15765;DHT22;7983;50.744;7.086;2022-07-17T03:47:29;15.10;77.60
15765;DHT22;7983;50.744;7.086;2022-07-17T03:49:57;15.10;78.30
15765;DHT22;7983;50.744;7.086;2022-07-17T03:52:25;15.00;78.50
15765;DHT22;7983;50.744;7.086;2022-07-17T03:54:52;15.00;80.00
15765;DHT22;7983;50.744;7.086;2022-07-17T03:57:20;15.00;80.00
15765;DHT22;7983;50.744;7.086;2022-07-17T03:59:51;14.90;80.50
15765;DHT22;7983;50.744;7.086;2022-07-17T04:02:17;14.90;81.70
15765;DHT22;7983;50.744;7.086;2022-07-17T04:04:42;14.90;81.80
15765;DHT22;7983;50.744;7.086;2022-07-17T04:07:13;14.90;82.60
15765;DHT22;7983;50.744;7.086;2022-07-17T04:09:56;14.80;82.90
15765;DHT22;7983;50.744;7.086;2022-07-17T04:12:23;14.80;82.40
15765;DHT22;7983;50.744;7.086;2022-07-17T04:14:48;14.80;82.80
15765;DHT22;7983;50.744;7.086;2022-07-17T04:17:15;14.80;82.80
15765;DHT22;7983;50.744;7.086;2022-07-17T04:19:40;14.80;82.90
15765;DHT22;7983;50.744;7.086;2022-07-17T04:22:06;14.80;82.70
15765;DHT22;7983;50.744;7.086;2022-07-17T04:24:34;14.80;82.50
15765;DHT22;7983;50.744;7.086;2022-07-17T04:26:59;14.90;82.20
15765;DHT22;7983;50.744;7.086;2022-07-17T04:29:25;14.90;82.20
15765;DHT22;7983;50.744;7.086;2022-07-17T04:31:50;14.90;82.20
15765;DHT22;7983;50.744;7.086;2022-07-17T04:34:17;14.90;82.20
15765;DHT22;7983;50.744;7.086;2022-07-17T04:36:43;14.90;82.10
15765;DHT22;7983;50.744;7.086;2022-07-17T04:39:08;15.00;82.00
15765;DHT22;7983;50.744;7.086;2022-07-17T04:41:34;15.00;81.90
15765;DHT22;7983;50.744;7.086;2022-07-17T04:44:00;15.00;81.90
15765;DHT22;7983;50.744;7.086;2022-07-17T04:46:27;15.00;82.00
15765;DHT22;7983;50.744;7.086;2022-07-17T04:48:55;15.00;82.10
15765;DHT22;7983;50.744;7.086;2022-07-17T04:51:23;15.10;82.30
15765;DHT22;7983;50.744;7.086;2022-07-17T04:53:49;15.00;82.00
15765;DHT22;7983;50.744;7.086;2022-07-17T04:56:14;15.10;82.80
15765;DHT22;7983;50.744;7.086;2022-07-17T04:58:45;15.10;82.30
15765;DHT22;7983;50.744;7.086;2022-07-17T05:01:10;15.10;82.80
15765;DHT22;7983;50.744;7.086;2022-07-17T05:03:40;15.20;82.90
15765;DHT22;7983;50.744;7.086;2022-07-17T05:06:06;15.20;83.50
15765;DHT22;7983;50.744;7.086;2022-07-17T05:08:34;15.30;83.30
15765;DHT22;7983;50.744;7.086;2022-07-17T05:10:59;15.30;84.20
15765;DHT22;7983;50.744;7.086;2022-07-17T05:13:27;15.40;83.40
15765;DHT22;7983;50.744;7.086;2022-07-17T05:15:58;15.50;83.40
15765;DHT22;7983;50.744;7.086;2022-07-17T05:18:26;15.50;83.70
15765;DHT22;7983;50.744;7.086;2022-07-17T05:20:53;15.60;83.90
15765;DHT22;7983;50.744;7.086;2022-07-17T05:23:21;15.60;83.70
15765;DHT22;7983;50.744;7.086;2022-07-17T05:25:47;15.70;84.70
15765;DHT22;7983;50.744;7.086;2022-07-17T05:28:17;15.70;85.10
15765;DHT22;7983;50.744;7.086;2022-07-17T05:30:43;15.80;85.80
15765;DHT22;7983;50.744;7.086;2022-07-17T05:33:08;15.90;85.80
15765;DHT22;7983;50.744;7.086;2022-07-17T05:35:36;15.90;86.30
15765;DHT22;7983;50.744;7.086;2022-07-17T05:38:02;16.00;86.50
15765;DHT22;7983;50.744;7.086;2022-07-17T05:40:30;16.00;86.70
15765;DHT22;7983;50.744;7.086;2022-07-17T05:42:59;16.10;86.50
15765;DHT22;7983;50.744;7.086;2022-07-17T05:45:24;16.20;87.00
15765;DHT22;7983;50.744;7.086;2022-07-17T05:47:50;16.20;86.60
15765;DHT22;7983;50.744;7.086;2022-07-17T05:50:18;16.30;86.70
15765;DHT22;7983;50.744;7.086;2022-07-17T05:52:46;16.30;86.70
15765;DHT22;7983;50.744;7.086;2022-07-17T05:55:11;16.30;87.10
15765;DHT22;7983;50.744;7.086;2022-07-17T05:57:39;16.40;87.30
15765;DHT22;7983;50.744;7.086;2022-07-17T06:00:05;16.40;87.70
15765;DHT22;7983;50.744;7.086;2022-07-17T06:02:31;16.50;87.80
15765;DHT22;7983;50.744;7.086;2022-07-17T06:04:57;16.50;87.90
15765;DHT22;7983;50.744;7.086;2022-07-17T06:07:25;16.60;88.00
15765;DHT22;7983;50.744;7.086;2022-07-17T06:09:52;16.70;88.30
15765;DHT22;7983;50.744;7.086;2022-07-17T06:12:20;16.70;88.30
15765;DHT22;7983;50.744;7.086;2022-07-17T06:14:46;16.80;88.50
15765;DHT22;7983;50.744;7.086;2022-07-17T06:17:11;16.80;88.40
15765;DHT22;7983;50.744;7.086;2022-07-17T06:19:39;16.90;88.20
15765;DHT22;7983;50.744;7.086;2022-07-17T06:22:05;16.90;88.20
15765;DHT22;7983;50.744;7.086;2022-07-17T06:24:33;17.00;88.10
15765;DHT22;7983;50.744;7.086;2022-07-17T06:26:59;17.00;88.60
15765;DHT22;7983;50.744;7.086;2022-07-17T06:29:27;17.00;88.20
15765;DHT22;7983;50.744;7.086;2022-07-17T06:31:52;17.10;88.20
15765;DHT22;7983;50.744;7.086;2022-07-17T06:34:18;17.10;88.40
15765;DHT22;7983;50.744;7.086;2022-07-17T06:36:44;17.20;88.20
15765;DHT22;7983;50.744;7.086;2022-07-17T06:39:09;17.20;88.10
15765;DHT22;7983;50.744;7.086;2022-07-17T06:41:35;17.30;88.10
15765;DHT22;7983;50.744;7.086;2022-07-17T06:44:03;17.30;88.30
15765;DHT22;7983;50.744;7.086;2022-07-17T06:46:31;17.40;88.40
15765;DHT22;7983;50.744;7.086;2022-07-17T06:48:56;17.50;88.50
15765;DHT22;7983;50.744;7.086;2022-07-17T06:51:22;17.50;88.80
15765;DHT22;7983;50.744;7.086;2022-07-17T06:53:47;17.60;88.60
15765;DHT22;7983;50.744;7.086;2022-07-17T06:56:13;17.60;88.80
15765;DHT22;7983;50.744;7.086;2022-07-17T06:58:39;17.70;88.90
15765;DHT22;7983;50.744;7.086;2022-07-17T07:01:04;17.80;89.00
15765;DHT22;7983;50.744;7.086;2022-07-17T07:03:30;17.80;89.30
15765;DHT22;7983;50.744;7.086;2022-07-17T07:05:56;17.90;89.30
15765;DHT22;7983;50.744;7.086;2022-07-17T07:08:24;18.00;89.30
15765;DHT22;7983;50.744;7.086;2022-07-17T07:10:49;18.10;89.50
15765;DHT22;7983;50.744;7.086;2022-07-17T07:13:15;18.10;89.30
15765;DHT22;7983;50.744;7.086;2022-07-17T07:15:41;18.20;89.20
15765;DHT22;7983;50.744;7.086;2022-07-17T07:18:09;18.30;89.00
15765;DHT22;7983;50.744;7.086;2022-07-17T07:20:35;18.40;89.10
15765;DHT22;7983;50.744;7.086;2022-07-17T07:23:00;18.40;88.80
15765;DHT22;7983;50.744;7.086;2022-07-17T07:25:26;18.50;89.30
15765;DHT22;7983;50.744;7.086;2022-07-17T07:27:52;18.60;88.60
15765;DHT22;7983;50.744;7.086;2022-07-17T07:30:17;18.70;88.30
15765;DHT22;7983;50.744;7.086;2022-07-17T07:32:43;18.80;88.20
15765;DHT22;7983;50.744;7.086;2022-07-17T07:35:11;18.90;87.90
15765;DHT22;7983;50.744;7.086;2022-07-17T07:37:37;18.90;87.50
15765;DHT22;7983;50.744;7.086;2022-07-17T07:40:04;19.00;87.30
15765;DHT22;7983;50.744;7.086;2022-07-17T07:42:30;19.00;87.20
15765;DHT22;7983;50.744;7.086;2022-07-17T07:44:56;19.10;87.00
15765;DHT22;7983;50.744;7.086;2022-07-17T07:47:21;19.20;87.00
15765;DHT22;7983;50.744;7.086;2022-07-17T07:49:47;19.30;86.80
15765;DHT22;7983;50.744;7.086;2022-07-17T07:52:13;19.40;87.00
15765;DHT22;7983;50.744;7.086;2022-07-17T07:54:38;19.50;86.70
15765;DHT22;7983;50.744;7.086;2022-07-17T07:57:04;19.50;86.60
15765;DHT22;7983;50.744;7.086;2022-07-17T07:59:30;19.60;86.60
15765;DHT22;7983;50.744;7.086;2022-07-17T08:01:59;19.70;86.70
15765;DHT22;7983;50.744;7.086;2022-07-17T08:04:25;19.80;86.90
15765;DHT22;7983;50.744;7.086;2022-07-17T08:06:53;19.80;86.70
15765;DHT22;7983;50.744;7.086;2022-07-17T08:09:19;19.90;86.50
15765;DHT22;7983;50.744;7.086;2022-07-17T08:11:47;20.00;86.50
15765;DHT22;7983;50.744;7.086;2022-07-17T08:14:12;20.10;86.40
15765;DHT22;7983;50.744;7.086;2022-07-17T08:16:38;20.20;86.70
15765;DHT22;7983;50.744;7.086;2022-07-17T08:19:06;20.30;86.50
15765;DHT22;7983;50.744;7.086;2022-07-17T08:21:37;20.40;86.20
15765;DHT22;7983;50.744;7.086;2022-07-17T08:24:03;20.50;86.10
15765;DHT22;7983;50.744;7.086;2022-07-17T08:26:29;20.50;86.10
15765;DHT22;7983;50.744;7.086;2022-07-17T08:28:54;20.60;86.00
15765;DHT22;7983;50.744;7.086;2022-07-17T08:31:20;20.70;85.50
15765;DHT22;7983;50.744;7.086;2022-07-17T08:33:46;20.80;85.30
15765;DHT22;7983;50.744;7.086;2022-07-17T08:36:13;20.90;85.00
15765;DHT22;7983;50.744;7.086;2022-07-17T08:38:39;20.90;84.80
15765;DHT22;7983;50.744;7.086;2022-07-17T08:41:05;21.10;84.90
15765;DHT22;7983;50.744;7.086;2022-07-17T08:43:33;21.20;84.50
15765;DHT22;7983;50.744;7.086;2022-07-17T08:45:59;21.20;84.10
15765;DHT22;7983;50.744;7.086;2022-07-17T08:48:28;21.30;83.90
15765;DHT22;7983;50.744;7.086;2022-07-17T08:50:59;21.40;83.20
15765;DHT22;7983;50.744;7.086;2022-07-17T08:53:27;21.50;81.60
15765;DHT22;7983;50.744;7.086;2022-07-17T08:55:53;21.60;81.90
15765;DHT22;7983;50.744;7.086;2022-07-17T08:58:19;21.70;81.70
15765;DHT22;7983;50.744;7.086;2022-07-17T09:00:47;21.80;81.70
15765;DHT22;7983;50.744;7.086;2022-07-17T09:03:16;21.90;81.60
15765;DHT22;7983;50.744;7.086;2022-07-17T09:05:45;22.00;81.50
15765;DHT22;7983;50.744;7.086;2022-07-17T09:08:22;22.00;81.10
15765;DHT22;7983;50.744;7.086;2022-07-17T09:10:54;22.10;78.00
15765;DHT22;7983;50.744;7.086;2022-07-17T09:13:28;22.20;78.80
15765;DHT22;7983;50.744;7.086;2022-07-17T09:16:11;22.20;77.70
15765;DHT22;7983;50.744;7.086;2022-07-17T09:18:45;22.30;78.70
15765;DHT22;7983;50.744;7.086;2022-07-17T09:21:38;22.40;78.00
15765;DHT22;7983;50.744;7.086;2022-07-17T09:24:06;22.50;77.20
15765;DHT22;7983;50.744;7.086;2022-07-17T09:26:36;22.50;78.10
15765;DHT22;7983;50.744;7.086;2022-07-17T09:29:08;22.60;77.40
15765;DHT22;7983;50.744;7.086;2022-07-17T09:31:37;22.70;77.90
15765;DHT22;7983;50.744;7.086;2022-07-17T09:34:05;22.70;77.50
15765;DHT22;7983;50.744;7.086;2022-07-17T09:36:44;22.80;77.00
15765;DHT22;7983;50.744;7.086;2022-07-17T09:39:10;22.90;76.10
15765;DHT22;7983;50.744;7.086;2022-07-17T09:41:40;22.90;76.40
15765;DHT22;7983;50.744;7.086;2022-07-17T09:44:08;23.00;76.00
15765;DHT22;7983;50.744;7.086;2022-07-17T09:46:37;23.10;75.50
15765;DHT22;7983;50.744;7.086;2022-07-17T09:49:06;23.20;75.70
15765;DHT22;7983;50.744;7.086;2022-07-17T09:51:37;23.30;75.40
15765;DHT22;7983;50.744;7.086;2022-07-17T09:54:05;23.30;74.90
15765;DHT22;7983;50.744;7.086;2022-07-17T09:56:35;23.40;74.80
15765;DHT22;7983;50.744;7.086;2022-07-17T09:59:03;23.50;74.80
15765;DHT22;7983;50.744;7.086;2022-07-17T10:01:32;23.60;74.10
15765;DHT22;7983;50.744;7.086;2022-07-17T10:03:58;23.70;73.90
15765;DHT22;7983;50.744;7.086;2022-07-17T10:06:25;23.70;74.10
15765;DHT22;7983;50.744;7.086;2022-07-17T10:08:53;23.90;73.90
15765;DHT22;7983;50.744;7.086;2022-07-17T10:11:21;24.00;73.70
15765;DHT22;7983;50.744;7.086;2022-07-17T10:13:55;24.10;72.90
15765;DHT22;7983;50.744;7.086;2022-07-17T10:16:29;24.10;71.70
15765;DHT22;7983;50.744;7.086;2022-07-17T10:18:58;24.20;72.30
15765;DHT22;7983;50.744;7.086;2022-07-17T10:21:25;24.30;71.40
15765;DHT22;7983;50.744;7.086;2022-07-17T10:28:59;24.60;70.60
15765;DHT22;7983;50.744;7.086;2022-07-17T10:31:27;24.70;69.60
15765;DHT22;7983;50.744;7.086;2022-07-17T10:34:04;24.80;70.70
15765;DHT22;7983;50.744;7.086;2022-07-17T10:36:37;24.90;70.20
15765;DHT22;7983;50.744;7.086;2022-07-17T10:39:30;25.00;70.20
15765;DHT22;7983;50.744;7.086;2022-07-17T10:42:00;25.20;69.10
15765;DHT22;7983;50.744;7.086;2022-07-17T10:44:31;25.50;70.80
15765;DHT22;7983;50.744;7.086;2022-07-17T10:47:00;25.80;69.40
15765;DHT22;7983;50.744;7.086;2022-07-17T10:49:26;26.10;69.50
15765;DHT22;7983;50.744;7.086;2022-07-17T10:51:53;26.20;68.20
15765;DHT22;7983;50.744;7.086;2022-07-17T10:54:33;26.40;68.20
15765;DHT22;7983;50.744;7.086;2022-07-17T10:57:01;26.60;66.60
15765;DHT22;7983;50.744;7.086;2022-07-17T10:59:26;26.90;66.80
15765;DHT22;7983;50.744;7.086;2022-07-17T11:01:56;27.10;67.50
15765;DHT22;7983;50.744;7.086;2022-07-17T11:04:24;27.30;65.70
15765;DHT22;7983;50.744;7.086;2022-07-17T11:07:08;27.50;65.40
15765;DHT22;7983;50.744;7.086;2022-07-17T11:09:33;27.70;63.60
15765;DHT22;7983;50.744;7.086;2022-07-17T11:12:01;27.90;64.10
15765;DHT22;7983;50.744;7.086;2022-07-17T11:14:28;28.10;63.20
15765;DHT22;7983;50.744;7.086;2022-07-17T11:17:00;28.20;63.00
15765;DHT22;7983;50.744;7.086;2022-07-17T11:19:38;28.30;61.50
15765;DHT22;7983;50.744;7.086;2022-07-17T11:22:12;28.50;57.40
15765;DHT22;7983;50.744;7.086;2022-07-17T11:24:48;28.50;58.40
15765;DHT22;7983;50.744;7.086;2022-07-17T11:27:20;28.70;57.80
15765;DHT22;7983;50.744;7.086;2022-07-17T11:29:49;28.80;58.90
15765;DHT22;7983;50.744;7.086;2022-07-17T11:32:15;29.00;59.80
15765;DHT22;7983;50.744;7.086;2022-07-17T11:34:41;29.10;58.90
15765;DHT22;7983;50.744;7.086;2022-07-17T11:37:12;29.20;58.20
15765;DHT22;7983;50.744;7.086;2022-07-17T11:39:42;29.40;57.60
15765;DHT22;7983;50.744;7.086;2022-07-17T11:42:16;29.50;55.60
15765;DHT22;7983;50.744;7.086;2022-07-17T11:44:43;29.60;54.40
15765;DHT22;7983;50.744;7.086;2022-07-17T11:47:10;29.60;55.60
15765;DHT22;7983;50.744;7.086;2022-07-17T11:49:37;29.60;55.20
15765;DHT22;7983;50.744;7.086;2022-07-17T11:55:03;29.90;53.90
15765;DHT22;7983;50.744;7.086;2022-07-17T11:57:50;29.90;51.80
15765;DHT22;7983;50.744;7.086;2022-07-17T12:00:21;29.90;52.20
15765;DHT22;7983;50.744;7.086;2022-07-17T12:03:03;29.90;52.50
15765;DHT22;7983;50.744;7.086;2022-07-17T12:05:31;30.00;51.40
15765;DHT22;7983;50.744;7.086;2022-07-17T12:08:00;30.00;52.40
15765;DHT22;7983;50.744;7.086;2022-07-17T12:10:29;30.10;51.90
15765;DHT22;7983;50.744;7.086;2022-07-17T12:13:00;30.10;51.60
15765;DHT22;7983;50.744;7.086;2022-07-17T12:15:45;30.20;52.00
15765;DHT22;7983;50.744;7.086;2022-07-17T12:18:27;30.20;50.50
15765;DHT22;7983;50.744;7.086;2022-07-17T12:20:55;30.20;48.80
15765;DHT22;7983;50.744;7.086;2022-07-17T12:26:15;30.20;50.20
15765;DHT22;7983;50.744;7.086;2022-07-17T12:28:42;30.20;50.40
15765;DHT22;7983;50.744;7.086;2022-07-17T12:31:09;30.30;51.00
15765;DHT22;7983;50.744;7.086;2022-07-17T12:33:42;30.30;50.50
15765;DHT22;7983;50.744;7.086;2022-07-17T12:36:14;30.40;50.30
15765;DHT22;7983;50.744;7.086;2022-07-17T12:38:40;30.50;48.70
15765;DHT22;7983;50.744;7.086;2022-07-17T12:41:06;30.50;49.60
15765;DHT22;7983;50.744;7.086;2022-07-17T12:43:31;30.60;49.80
15765;DHT22;7983;50.744;7.086;2022-07-17T12:45:57;30.60;48.90
15765;DHT22;7983;50.744;7.086;2022-07-17T12:48:25;30.60;47.90
15765;DHT22;7983;50.744;7.086;2022-07-17T12:50:53;30.60;48.70
15765;DHT22;7983;50.744;7.086;2022-07-17T12:53:21;30.70;48.50
15765;DHT22;7983;50.744;7.086;2022-07-17T12:55:46;30.70;48.30
15765;DHT22;7983;50.744;7.086;2022-07-17T12:58:12;30.80;48.90
15765;DHT22;7983;50.744;7.086;2022-07-17T13:00:40;31.00;48.70
15765;DHT22;7983;50.744;7.086;2022-07-17T13:03:10;31.10;48.40
15765;DHT22;7983;50.744;7.086;2022-07-17T13:05:36;31.20;47.70
15765;DHT22;7983;50.744;7.086;2022-07-17T13:08:02;31.30;47.50
15765;DHT22;7983;50.744;7.086;2022-07-17T13:10:28;31.40;47.70
15765;DHT22;7983;50.744;7.086;2022-07-17T13:12:53;31.40;47.60
15765;DHT22;7983;50.744;7.086;2022-07-17T13:15:19;31.50;47.30
15765;DHT22;7983;50.744;7.086;2022-07-17T13:17:47;31.50;46.60
15765;DHT22;7983;50.744;7.086;2022-07-17T13:20:15;31.50;46.70
15765;DHT22;7983;50.744;7.086;2022-07-17T13:22:41;31.60;46.70
15765;DHT22;7983;50.744;7.086;2022-07-17T13:25:09;31.70;45.10
15765;DHT22;7983;50.744;7.086;2022-07-17T13:27:35;31.70;44.70
15765;DHT22;7983;50.744;7.086;2022-07-17T13:30:03;31.70;43.00
15765;DHT22;7983;50.744;7.086;2022-07-17T13:32:29;31.70;43.00
15765;DHT22;7983;50.744;7.086;2022-07-17T13:34:55;31.70;43.40
15765;DHT22;7983;50.744;7.086;2022-07-17T13:37:21;31.70;43.10
15765;DHT22;7983;50.744;7.086;2022-07-17T13:39:46;31.70;43.30
15765;DHT22;7983;50.744;7.086;2022-07-17T13:42:12;31.70;43.40
15765;DHT22;7983;50.744;7.086;2022-07-17T13:44:40;31.80;43.00
15765;DHT22;7983;50.744;7.086;2022-07-17T13:47:08;31.80;41.70
15765;DHT22;7983;50.744;7.086;2022-07-17T13:49:36;31.80;43.00
15765;DHT22;7983;50.744;7.086;2022-07-17T13:52:02;31.90;41.90
15765;DHT22;7983;50.744;7.086;2022-07-17T13:54:27;31.80;42.00
15765;DHT22;7983;50.744;7.086;2022-07-17T13:56:57;31.80;42.30
15765;DHT22;7983;50.744;7.086;2022-07-17T13:59:25;31.80;42.40
15765;DHT22;7983;50.744;7.086;2022-07-17T14:01:51;31.90;42.90
15765;DHT22;7983;50.744;7.086;2022-07-17T14:04:17;32.00;42.80
15765;DHT22;7983;50.744;7.086;2022-07-17T14:06:42;32.20;43.00
15765;DHT22;7983;50.744;7.086;2022-07-17T14:09:10;32.30;42.40
15765;DHT22;7983;50.744;7.086;2022-07-17T14:11:38;32.40;41.90
15765;DHT22;7983;50.744;7.086;2022-07-17T14:14:06;32.50;41.50
15765;DHT22;7983;50.744;7.086;2022-07-17T14:16:34;32.50;41.20
15765;DHT22;7983;50.744;7.086;2022-07-17T14:18:59;32.50;41.30
15765;DHT22;7983;50.744;7.086;2022-07-17T14:21:28;32.60;41.30
15765;DHT22;7983;50.744;7.086;2022-07-17T14:23:57;32.60;40.40
15765;DHT22;7983;50.744;7.086;2022-07-17T14:26:23;32.70;40.90
15765;DHT22;7983;50.744;7.086;2022-07-17T14:28:53;32.80;40.70
15765;DHT22;7983;50.744;7.086;2022-07-17T14:31:22;32.90;40.20
15765;DHT22;7983;50.744;7.086;2022-07-17T14:33:50;33.00;39.80
15765;DHT22;7983;50.744;7.086;2022-07-17T14:36:16;33.10;40.00
15765;DHT22;7983;50.744;7.086;2022-07-17T14:38:44;33.20;40.30
15765;DHT22;7983;50.744;7.086;2022-07-17T14:41:10;33.40;40.20
15765;DHT22;7983;50.744;7.086;2022-07-17T14:43:36;33.40;40.40
15765;DHT22;7983;50.744;7.086;2022-07-17T14:46:06;33.60;40.70
15765;DHT22;7983;50.744;7.086;2022-07-17T14:48:34;33.70;39.90
15765;DHT22;7983;50.744;7.086;2022-07-17T14:51:05;33.80;39.50
15765;DHT22;7983;50.744;7.086;2022-07-17T14:53:30;33.90;38.70
15765;DHT22;7983;50.744;7.086;2022-07-17T14:55:56;34.00;39.20
15765;DHT22;7983;50.744;7.086;2022-07-17T14:58:24;34.00;39.10
15765;DHT22;7983;50.744;7.086;2022-07-17T15:00:49;34.10;39.10
15765;DHT22;7983;50.744;7.086;2022-07-17T15:03:15;34.20;39.10
15765;DHT22;7983;50.744;7.086;2022-07-17T15:05:43;34.20;38.70
15765;DHT22;7983;50.744;7.086;2022-07-17T15:08:09;34.20;37.60
15765;DHT22;7983;50.744;7.086;2022-07-17T15:10:36;34.20;37.80
15765;DHT22;7983;50.744;7.086;2022-07-17T15:13:05;34.20;37.20
15765;DHT22;7983;50.744;7.086;2022-07-17T15:15:32;34.10;36.40
15765;DHT22;7983;50.744;7.086;2022-07-17T15:18:03;34.00;37.00
15765;DHT22;7983;50.744;7.086;2022-07-17T15:20:31;33.90;36.20
15765;DHT22;7983;50.744;7.086;2022-07-17T15:22:57;33.80;36.40
15765;DHT22;7983;50.744;7.086;2022-07-17T15:25:22;33.70;36.60
15765;DHT22;7983;50.744;7.086;2022-07-17T15:27:51;33.60;36.80
15765;DHT22;7983;50.744;7.086;2022-07-17T15:30:17;33.50;36.40
15765;DHT22;7983;50.744;7.086;2022-07-17T15:32:45;33.60;37.30
15765;DHT22;7983;50.744;7.086;2022-07-17T15:35:11;33.60;36.30
15765;DHT22;7983;50.744;7.086;2022-07-17T15:37:37;33.60;36.60
15765;DHT22;7983;50.744;7.086;2022-07-17T15:40:04;33.70;36.20
15765;DHT22;7983;50.744;7.086;2022-07-17T15:42:30;33.70;36.30
15765;DHT22;7983;50.744;7.086;2022-07-17T15:44:55;33.70;36.00
15765;DHT22;7983;50.744;7.086;2022-07-17T15:47:21;33.80;36.10
15765;DHT22;7983;50.744;7.086;2022-07-17T15:49:47;33.90;36.10
15765;DHT22;7983;50.744;7.086;2022-07-17T15:52:13;33.90;36.30
15765;DHT22;7983;50.744;7.086;2022-07-17T15:54:38;34.00;36.00
15765;DHT22;7983;50.744;7.086;2022-07-17T15:57:04;34.10;35.50
15765;DHT22;7983;50.744;7.086;2022-07-17T15:59:32;34.10;35.80
15765;DHT22;7983;50.744;7.086;2022-07-17T16:01:58;34.10;35.70
15765;DHT22;7983;50.744;7.086;2022-07-17T16:04:25;34.10;35.40